Time;durP1;ratioP1;P1;durP2;ratioP2;P2;SDS_P1;SDS_P2;PMS_P1;PMS_P2;Temp;Humidity;BMP_temperature;BMP_pressure;BME280_temperature;BME280_humidity;BME280_pressure;Samples;Min_cycle;Max_cycle;Signal;HPM_P1;HPM_P2
2022/03/12 00:04:15;;;;;;;3.75;2.40;;;;;;;-1.20;45.17;98865.59;10283933;28;20531;-62
2022/03/12 00:09:18;;;;;;;3.13;2.30;;;;;;;-1.25;45.27;98864.06;10275791;28;20555;-58
2022/03/12 00:14:23;;;;;;;2.20;2.00;;;;;;;-1.25;44.50;98853.50;10279725;28;20049;-58
2022/03/12 00:19:32;;;;;;;3.90;2.40;;;;;;;-1.22;44.79;98848.97;10275944;28;20074;-57
2022/03/12 00:24:42;;;;;;;3.28;2.28;;;;;;;-1.27;45.33;98843.91;10280242;28;20042;-62
2022/03/12 00:29:47;;;;;;;5.35;2.40;;;;;;;-1.22;44.19;98839.25;10271641;28;20065;-60
2022/03/12 00:34:52;;;;;;;3.33;2.13;;;;;;;-1.24;43.92;98835.81;10353172;23;20116;-54
2022/03/12 00:39:56;;;;;;;2.00;1.80;;;;;;;-1.13;42.38;98835.31;10333408;28;20145;-57
2022/03/12 00:44:59;;;;;;;2.28;1.90;;;;;;;-1.04;41.86;98845.41;10325612;28;20124;-55
2022/03/12 00:50:06;;;;;;;1.90;1.63;;;;;;;-0.98;40.94;98845.09;10318480;28;20461;-53
2022/03/12 00:55:10;;;;;;;1.92;1.70;;;;;;;-0.94;40.77;98844.00;10317031;28;20045;-57
2022/03/12 01:00:17;;;;;;;2.80;1.98;;;;;;;-0.92;40.87;98841.28;10320190;28;20062;-54
2022/03/12 01:05:24;;;;;;;1.92;1.73;;;;;;;-0.83;40.43;98839.94;10337421;28;20116;-53
2022/03/12 01:10:28;;;;;;;2.13;1.83;;;;;;;-0.82;40.62;98839.03;10333261;28;20046;-56
2022/03/12 01:15:32;;;;;;;4.18;1.75;;;;;;;-0.80;40.10;98837.16;10336585;28;20085;-53
2022/03/12 01:20:36;;;;;;;2.60;1.83;;;;;;;-0.68;39.44;98838.28;10334428;28;20390;-54
2022/03/12 01:25:40;;;;;;;2.05;1.70;;;;;;;-0.61;38.71;98831.78;10334778;28;20050;-57
2022/03/12 01:30:43;;;;;;;3.97;1.73;;;;;;;-0.51;37.79;98837.41;10330606;28;20050;-54
2022/03/12 01:35:48;;;;;;;1.95;1.58;;;;;;;-0.44;37.67;98838.81;10340584;28;20061;-57
2022/03/12 01:40:53;;;;;;;2.95;1.65;;;;;;;-0.44;37.76;98846.75;10338489;28;20125;-57
2022/03/12 01:46:00;;;;;;;3.75;1.60;;;;;;;-0.48;37.95;98850.50;10339855;28;20060;-57
2022/03/12 01:51:05;;;;;;;2.85;1.60;;;;;;;-0.52;37.51;98846.28;10345250;28;20104;-57
2022/03/12 01:56:08;;;;;;;4.80;1.52;;;;;;;-0.54;37.56;98845.53;10347192;28;20056;-55
2022/03/12 02:01:12;;;;;;;1.75;1.60;;;;;;;-0.55;37.39;98841.19;10344378;28;20089;-55
2022/03/12 02:06:21;;;;;;;2.83;1.70;;;;;;;-0.54;36.87;98842.88;10351023;28;20042;-56
2022/03/12 02:11:27;;;;;;;2.50;1.65;;;;;;;-0.53;37.22;98839.31;10361246;28;20053;-59
2022/03/12 02:16:31;;;;;;;2.67;1.67;;;;;;;-0.58;37.37;98841.31;10357648;28;20129;-56
2022/03/12 02:21:40;;;;;;;1.83;1.40;;;;;;;-0.63;37.09;98847.72;10364512;28;20088;-56
2022/03/12 02:26:47;;;;;;;2.58;1.60;;;;;;;-0.61;36.64;98847.66;10360822;28;20072;-59
2022/03/12 02:31:56;;;;;;;1.40;1.30;;;;;;;-0.62;36.62;98841.47;10365465;28;20053;-57
2022/03/12 02:36:59;;;;;;;3.60;1.50;;;;;;;-0.64;36.35;98845.16;10336290;28;20129;-58
2022/03/12 02:42:07;;;;;;;1.67;1.58;;;;;;;-0.66;36.76;98850.53;10331291;28;20052;-56
2022/03/12 02:47:14;;;;;;;1.83;1.60;;;;;;;-0.69;37.28;98849.81;10330590;28;20073;-56
2022/03/12 02:52:19;;;;;;;1.48;1.38;;;;;;;-0.73;36.76;98848.28;10341039;28;20053;-55
2022/03/12 02:57:25;;;;;;;2.92;1.40;;;;;;;-0.72;36.42;98850.00;10338890;28;20046;-56
2022/03/12 03:02:31;;;;;;;1.55;1.40;;;;;;;-0.72;35.70;98850.84;10337001;28;20046;-57
2022/03/12 03:07:35;;;;;;;1.92;1.60;;;;;;;-0.69;35.59;98845.41;10340010;28;20777;-56
2022/03/12 03:12:41;;;;;;;1.60;1.30;;;;;;;-0.66;35.03;98842.59;10337838;28;20130;-59
2022/03/12 03:17:46;;;;;;;2.08;1.63;;;;;;;-0.67;35.28;98843.53;10336233;28;20058;-54
2022/03/12 03:22:49;;;;;;;2.55;1.35;;;;;;;-0.72;35.87;98845.53;10348825;28;20507;-57
2022/03/12 03:27:54;;;;;;;1.88;1.40;;;;;;;-0.79;36.63;98852.09;10342183;28;20566;-55
2022/03/12 03:32:57;;;;;;;1.50;1.25;;;;;;;-0.76;36.02;98841.34;10342047;28;20058;-54
2022/03/12 03:38:01;;;;;;;2.00;1.38;;;;;;;-0.80;35.97;98847.75;10337217;28;20046;-57
2022/03/12 03:43:09;;;;;;;2.22;1.60;;;;;;;-0.81;36.37;98853.97;10346210;28;20148;-54
2022/03/12 03:48:15;;;;;;;3.67;1.50;;;;;;;-0.89;36.03;98859.63;10341601;28;20074;-55
2022/03/12 03:53:20;;;;;;;2.28;1.60;;;;;;;-0.94;36.58;98857.22;10348510;28;20143;-55
2022/03/12 03:58:25;;;;;;;2.38;1.60;;;;;;;-1.00;36.47;98860.16;10349861;28;20776;-57
2022/03/12 04:03:32;;;;;;;3.03;1.45;;;;;;;-1.04;36.29;98857.75;10349241;28;20049;-58
2022/03/12 04:08:36;;;;;;;1.77;1.50;;;;;;;-1.01;35.85;98866.44;10344882;28;20069;-57
2022/03/12 04:13:40;;;;;;;2.00;1.45;;;;;;;-1.03;36.13;98862.13;10349933;28;20042;-57
2022/03/12 04:18:46;;;;;;;2.38;1.40;;;;;;;-1.09;36.54;98866.81;10354531;28;20042;-57
2022/03/12 04:23:50;;;;;;;1.73;1.58;;;;;;;-1.13;36.79;98861.75;10355861;28;20058;-54
2022/03/12 04:28:57;;;;;;;1.83;1.50;;;;;;;-1.18;37.06;98853.19;10359526;28;20362;-56
2022/03/12 04:34:00;;;;;;;2.08;1.30;;;;;;;-1.21;36.80;98853.31;10351338;28;20942;-56
2022/03/12 04:39:05;;;;;;;2.70;1.77;;;;;;;-1.28;37.08;98858.06;10325325;28;20845;-57
2022/03/12 04:44:10;;;;;;;3.58;1.63;;;;;;;-1.33;36.98;98860.94;10328456;28;20042;-57
2022/03/12 04:49:13;;;;;;;2.22;1.58;;;;;;;-1.36;36.58;98863.75;10330017;28;20058;-56
2022/03/12 04:54:16;;;;;;;2.13;1.52;;;;;;;-1.34;36.28;98859.22;10330825;28;20470;-57
2022/03/12 04:59:20;;;;;;;1.98;1.70;;;;;;;-1.36;37.08;98869.03;10332975;28;20449;-57
2022/03/12 05:04:24;;;;;;;1.70;1.38;;;;;;;-1.38;37.36;98868.25;10333553;28;20049;-56
2022/03/12 05:09:27;;;;;;;1.88;1.40;;;;;;;-1.43;36.80;98860.53;10336305;28;20121;-57
2022/03/12 05:14:34;;;;;;;1.90;1.50;;;;;;;-1.44;36.79;98866.75;10334783;28;20137;-58
2022/03/12 05:19:42;;;;;;;1.90;1.50;;;;;;;-1.49;36.67;98860.81;10333615;28;20046;-58
2022/03/12 05:24:45;;;;;;;2.55;1.65;;;;;;;-1.40;36.07;98880.66;10339752;28;20046;-60
2022/03/12 05:29:51;;;;;;;2.45;1.58;;;;;;;-1.40;35.91;98875.38;10340771;28;20062;-59
2022/03/12 05:34:54;;;;;;;1.75;1.50;;;;;;;-1.42;36.48;98886.03;10338573;28;20053;-59
2022/03/12 05:39:58;;;;;;;3.35;1.30;;;;;;;-1.40;36.33;98892.09;10343957;28;20049;-57
2022/03/12 05:45:09;;;;;;;1.83;1.50;;;;;;;-1.29;36.01;98893.34;10335582;28;20082;-59
2022/03/12 05:50:14;;;;;;;1.77;1.50;;;;;;;-1.22;36.50;98899.19;10343406;28;20057;-58
2022/03/12 05:55:20;;;;;;;2.25;1.40;;;;;;;-1.19;36.48;98899.94;10338856;28;20042;-60
2022/03/12 06:00:26;;;;;;;1.95;1.33;;;;;;;-1.16;36.70;98912.13;10349409;28;20497;-57
2022/03/12 06:05:40;;;;;;;;;;;;;;;-1.16;37.67;98920.06;10343046;28;20042;-57
2022/03/12 06:10:57;;;;;;;2.05;1.30;;;;;;;-1.00;36.07;98913.06;10349290;28;19921;-55
2022/03/12 06:16:07;;;;;;;1.75;1.52;;;;;;;-0.90;35.61;98912.63;10348503;28;20046;-59
2022/03/12 06:21:10;;;;;;;2.35;1.70;;;;;;;-0.85;36.36;98923.81;10352035;28;20126;-59
2022/03/12 06:26:19;;;;;;;2.58;1.65;;;;;;;-0.78;35.73;98928.72;10354091;28;20050;-59
2022/03/12 06:31:24;;;;;;;1.40;1.30;;;;;;;-0.68;35.62;98936.19;10358317;28;20061;-56
2022/03/12 06:36:28;;;;;;;1.75;1.60;;;;;;;-0.60;35.79;98941.13;10328004;28;20073;-55
2022/03/12 06:41:43;;;;;;;2.03;1.50;;;;;;;-0.53;35.95;98938.06;10321232;28;20070;-57
2022/03/12 06:46:50;;;;;;;3.22;1.48;;;;;;;-0.39;36.31;98941.81;10321243;28;20043;-52
2022/03/12 06:51:55;;;;;;;1.98;1.50;;;;;;;-0.30;36.04;98935.19;10330318;28;20044;-52
2022/03/12 06:57:00;;;;;;;2.30;1.60;;;;;;;-0.23;36.59;98941.88;10340049;28;20145;-54
2022/03/12 07:02:05;;;;;;;3.28;1.50;;;;;;;-0.14;35.81;98941.38;10334312;28;20409;-56
2022/03/12 07:07:08;;;;;;;1.92;1.63;;;;;;;0.01;35.81;98949.47;10339935;28;20050;-55
2022/03/12 07:12:11;;;;;;;3.15;1.60;;;;;;;0.09;36.30;98956.06;10340640;28;20152;-57
2022/03/12 07:17:16;;;;;;;1.58;1.40;;;;;;;0.24;35.52;98962.34;10343244;28;20117;-55
2022/03/12 07:22:20;;;;;;;2.72;1.50;;;;;;;0.39;36.49;98949.19;10338418;28;20380;-54
2022/03/12 07:27:24;;;;;;;2.15;1.70;;;;;;;0.55;36.05;98960.66;10340875;28;20050;-54
2022/03/12 07:32:29;;;;;;;2.13;1.58;;;;;;;0.79;35.89;98962.88;10346197;28;20073;-52
2022/03/12 07:37:32;;;;;;;3.53;1.50;;;;;;;1.06;35.22;98972.88;10340763;28;20141;-52
2022/03/12 07:42:35;;;;;;;2.72;1.65;;;;;;;1.25;34.34;98987.75;10348277;28;20052;-59
2022/03/12 07:47:42;;;;;;;2.72;1.55;;;;;;;1.51;34.56;98984.44;10344319;28;20042;-56
2022/03/12 07:52:46;;;;;;;3.05;1.73;;;;;;;1.75;33.76;98988.41;10351657;28;20121;-61
2022/03/12 07:57:49;;;;;;;2.78;1.60;;;;;;;1.89;33.73;98995.53;10344928;28;20074;-57
2022/03/12 08:02:54;;;;;;;1.98;1.75;;;;;;;2.09;32.85;98991.69;10348404;28;20092;-60
2022/03/12 08:07:57;;;;;;;2.65;1.63;;;;;;;2.20;32.85;98988.34;10347348;28;20088;-60
2022/03/12 08:13:02;;;;;;;2.20;1.75;;;;;;;2.35;33.17;98998.06;10349757;28;20165;-59
2022/03/12 08:18:07;;;;;;;2.70;1.77;;;;;;;2.62;33.79;98994.63;10347625;28;20048;-58
2022/03/12 08:23:11;;;;;;;1.85;1.63;;;;;;;2.85;33.10;98994.97;10356096;28;20088;-54
2022/03/12 08:28:17;;;;;;;2.47;1.63;;;;;;;2.97;32.01;98994.19;10351708;28;20104;-61
2022/03/12 08:33:22;;;;;;;2.00;1.52;;;;;;;3.14;31.48;98994.88;10350828;28;20070;-57
2022/03/12 08:38:27;;;;;;;2.17;1.60;;;;;;;3.31;32.61;98999.97;10323529;28;20046;-59
2022/03/12 08:43:31;;;;;;;1.75;1.50;;;;;;;3.53;31.44;98996.72;10328937;28;20082;-59
2022/03/12 08:48:36;;;;;;;5.10;1.73;;;;;;;3.75;32.38;98997.09;10327234;28;20121;-57
2022/03/12 08:53:39;;;;;;;5.88;1.70;;;;;;;4.03;31.87;98989.91;10331216;28;20097;-56
2022/03/12 08:58:43;;;;;;;1.88;1.67;;;;;;;4.20;31.99;98992.22;10328986;28;20076;-52
2022/03/12 09:03:48;;;;;;;3.58;1.70;;;;;;;4.37;32.41;98984.88;10334580;28;20491;-51
2022/03/12 09:08:52;;;;;;;3.67;1.73;;;;;;;4.53;31.03;98980.16;10332212;28;20050;-55
2022/03/12 09:13:56;;;;;;;2.35;1.60;;;;;;;4.77;32.67;98982.91;10336581;28;20100;-52
2022/03/12 09:19:00;;;;;;;3.40;1.65;;;;;;;5.11;32.13;98981.41;10334544;28;20137;-54
2022/03/12 09:24:04;;;;;;;1.50;1.40;;;;;;;5.20;32.14;98970.03;10339301;28;20538;-53
2022/03/12 09:29:08;;;;;;;2.97;1.60;;;;;;;5.36;32.11;98957.25;10336489;28;20050;-56
2022/03/12 09:34:13;;;;;;;2.38;1.55;;;;;;;5.55;31.33;98956.72;10340509;28;20062;-56
2022/03/12 09:39:16;;;;;;;5.03;1.33;;;;;;;5.73;29.92;98961.63;10338096;28;20574;-53
2022/03/12 09:44:19;;;;;;;2.15;1.45;;;;;;;5.95;29.42;98957.28;10342354;28;20120;-55
2022/03/12 09:49:23;;;;;;;4.00;1.58;;;;;;;6.02;28.85;98942.53;10342427;28;20042;-53
2022/03/12 09:54:29;;;;;;;2.03;1.70;;;;;;;6.31;28.93;98939.38;10345533;28;20092;-53
2022/03/12 09:59:32;;;;;;;2.22;1.50;;;;;;;6.52;28.76;98936.81;10363540;28;20120;-53
2022/03/12 10:04:37;;;;;;;4.70;1.55;;;;;;;6.63;28.45;98934.13;10340311;28;20061;-60
2022/03/12 10:09:40;;;;;;;1.70;1.60;;;;;;;6.87;29.26;98925.09;10346132;28;20147;-55
2022/03/12 10:14:43;;;;;;;1.38;1.27;;;;;;;7.05;28.89;98917.38;10349515;28;20121;-55
2022/03/12 10:19:48;;;;;;;1.60;1.40;;;;;;;7.19;28.54;98921.56;10355252;28;20080;-55
2022/03/12 10:24:51;;;;;;;2.58;1.60;;;;;;;7.40;29.24;98916.25;10350806;28;20137;-52
2022/03/12 10:29:55;;;;;;;1.52;1.20;;;;;;;7.59;27.97;98920.06;10352178;28;20106;-56
2022/03/12 10:35:03;;;;;;;1.40;1.30;;;;;;;7.65;26.90;98914.19;10341464;28;20054;-57
2022/03/12 10:40:10;;;;;;;2.28;1.50;;;;;;;7.82;27.04;98904.69;10330006;28;20503;-58
2022/03/12 10:45:16;;;;;;;1.58;1.45;;;;;;;7.90;26.91;98897.81;10333119;28;20096;-60
2022/03/12 10:50:26;;;;;;;3.00;1.42;;;;;;;8.08;27.55;98896.22;10337682;28;20046;-57
2022/03/12 10:55:30;;;;;;;1.60;1.50;;;;;;;8.27;27.18;98890.09;10339839;28;20137;-56
2022/03/12 11:00:37;;;;;;;1.70;1.45;;;;;;;8.32;27.00;98887.00;10339853;28;20105;-59
2022/03/12 11:05:43;;;;;;;2.08;1.60;;;;;;;8.32;27.14;98879.78;10338450;28;20446;-60
2022/03/12 11:10:52;;;;;;;2.33;1.50;;;;;;;8.54;27.06;98885.97;10333300;28;20039;-61
2022/03/12 11:16:14;;;;;;;1.60;1.50;;;;;;;8.65;26.62;98879.66;10345178;28;20052;-61
2022/03/12 11:21:27;;;;;;;2.13;1.70;;;;;;;8.81;27.84;98875.59;10340385;28;20078;-59
2022/03/12 11:26:30;;;;;;;1.95;1.33;;;;;;;8.96;28.66;98858.06;10345029;28;20053;-58
2022/03/12 11:31:42;;;;;;;1.85;1.73;;;;;;;9.07;27.90;98857.09;10346399;28;20081;-57
2022/03/12 11:36:47;;;;;;;2.28;1.40;;;;;;;9.17;28.93;98855.25;10343843;28;20138;-58
2022/03/12 11:42:02;;;;;;;3.15;1.60;;;;;;;9.30;26.54;98840.66;10344342;28;20069;-59
2022/03/12 11:47:06;;;;;;;2.80;1.50;;;;;;;9.47;27.40;98844.47;10346486;28;20132;-59
2022/03/12 11:52:11;;;;;;;2.83;1.73;;;;;;;9.53;27.58;98835.81;10347727;28;20133;-60
2022/03/12 11:57:22;;;;;;;1.77;1.50;;;;;;;9.61;27.66;98824.31;10351008;28;20052;-58
2022/03/12 12:02:29;;;;;;;1.83;1.60;;;;;;;9.81;28.45;98815.22;10351635;28;20105;-60
2022/03/12 12:07:36;;;;;;;2.00;1.60;;;;;;;9.79;26.58;98819.91;10348885;28;20038;-55
2022/03/12 12:12:43;;;;;;;2.25;1.58;;;;;;;9.95;27.99;98810.34;10351270;28;20078;-56
2022/03/12 12:17:46;;;;;;;1.83;1.42;;;;;;;10.03;26.80;98805.09;10350073;28;20069;-57
2022/03/12 12:22:51;;;;;;;3.08;1.65;;;;;;;10.16;26.92;98796.66;10359049;28;20053;-59
2022/03/12 12:27:55;;;;;;;3.53;1.50;;;;;;;10.30;27.76;98797.97;10352795;28;20064;-56
2022/03/12 12:33:01;;;;;;;5.00;1.50;;;;;;;10.43;27.82;98787.75;10334442;22;20340;-80
2022/03/12 12:38:09;;;;;;;3.25;1.58;;;;;;;10.54;25.90;98777.75;10326955;28;20479;-78
2022/03/12 12:43:18;;;;;;;1.38;1.25;;;;;;;10.70;25.44;98787.88;10316064;28;20046;-78
2022/03/12 12:48:28;;;;;;;5.72;1.60;;;;;;;10.87;25.12;98775.41;10314407;28;20058;-77
2022/03/12 12:53:36;;;;;;;2.45;1.48;;;;;;;11.06;24.47;98774.34;10319178;28;20065;-80
2022/03/12 12:58:47;;;;;;;1.67;1.50;;;;;;;11.27;23.08;98779.41;10318688;28;20338;-79
2022/03/12 13:03:53;;;;;;;2.45;1.73;;;;;;;11.27;23.38;98768.63;10320252;28;20042;-82
2022/03/12 13:09:04;;;;;;;2.15;1.65;;;;;;;11.54;24.44;98764.09;10320438;28;20038;-80
2022/03/12 13:14:13;;;;;;;6.63;1.80;;;;;;;11.70;24.08;98747.97;10315397;28;20949;-81
2022/03/12 13:19:41;;;;;;;4.60;1.63;;;;;;;12.06;23.88;98747.00;10321332;28;20074;-80
2022/03/12 13:24:48;;;;;;;1.90;1.60;;;;;;;12.22;22.80;98743.50;10324333;28;20046;-81
2022/03/12 13:30:10;;;;;;;3.92;1.67;;;;;;;12.45;22.74;98741.06;10324843;28;20494;-79
2022/03/12 13:35:19;;;;;;;3.05;1.65;;;;;;;12.81;23.77;98728.28;10319115;28;20047;-78
2022/03/12 13:40:24;;;;;;;1.55;1.42;;;;;;;12.99;23.51;98725.41;10323140;28;20129;-81
2022/03/12 13:45:29;;;;;;;4.78;1.50;;;;;;;13.33;23.94;98716.22;10332415;28;20094;-80
2022/03/12 13:50:32;;;;;;;2.20;1.33;;;;;;;13.78;24.49;98714.78;10328916;28;20054;-81
2022/03/12 13:55:38;;;;;;;1.33;1.23;;;;;;;13.75;22.23;98709.72;10329074;28;20058;-80
2022/03/12 14:00:41;;;;;;;1.75;1.50;;;;;;;13.84;22.15;98710.53;10311703;28;20106;-80
2022/03/12 14:05:45;;;;;;;2.45;1.33;;;;;;;13.99;22.21;98706.03;10319364;28;20109;-80
2022/03/12 14:10:50;;;;;;;3.15;1.50;;;;;;;14.02;22.09;98710.28;10317686;28;20065;-80
2022/03/12 14:15:54;;;;;;;1.52;1.42;;;;;;;14.52;22.95;98710.84;10311720;28;20110;-81
2022/03/12 14:20:58;;;;;;;1.98;1.42;;;;;;;14.79;22.56;98711.38;10330213;28;20059;-80
2022/03/12 14:26:08;;;;;;;1.98;1.50;;;;;;;14.98;22.35;98699.19;10330379;28;20070;-81
2022/03/12 14:31:11;;;;;;;2.03;1.50;;;;;;;15.25;21.64;98703.16;10329465;28;20042;-80
2022/03/12 14:36:14;;;;;;;1.35;1.25;;;;;;;15.56;21.88;98702.16;10314146;28;20114;-80
2022/03/12 14:41:18;;;;;;;2.83;2.00;;;;;;;15.54;21.28;98697.94;10320133;28;20073;-81
2022/03/12 14:46:22;;;;;;;13.90;9.90;;;;;;;15.65;21.13;98693.91;10323448;28;20154;-79
2022/03/12 14:51:26;;;;;;;12.55;8.15;;;;;;;15.68;21.19;98682.69;10321931;28;20045;-81
2022/03/12 14:56:31;;;;;;;3.25;1.50;;;;;;;15.95;21.84;98672.19;10305855;28;20073;-82
2022/03/12 15:01:35;;;;;;;2.17;1.40;;;;;;;16.17;21.17;98667.63;10323574;28;20094;-82
2022/03/12 15:06:38;;;;;;;1.50;1.33;;;;;;;16.06;20.66;98663.56;10318671;28;20112;-79
2022/03/12 15:11:43;;;;;;;2.17;1.55;;;;;;;15.80;21.01;98661.31;10320455;28;20515;-79
2022/03/12 15:16:48;;;;;;;3.85;1.55;;;;;;;15.61;21.02;98658.13;10319048;28;20038;-79
2022/03/12 15:21:56;;;;;;;2.92;1.40;;;;;;;15.88;21.41;98658.53;10313750;28;20074;-78
2022/03/12 15:27:09;;;;;;;3.15;1.45;;;;;;;15.98;21.58;98667.22;10329109;28;20124;-79
2022/03/12 15:32:20;;;;;;;1.75;1.50;;;;;;;15.88;20.55;98679.44;10326083;28;20106;-79
2022/03/12 15:37:33;;;;;;;2.13;1.65;;;;;;;15.44;20.06;98662.91;10360562;28;20050;-80
2022/03/12 15:42:40;;;;;;;2.50;1.42;;;;;;;15.83;21.77;98664.50;10317290;28;20042;-79
2022/03/12 15:47:44;;;;;;;2.47;1.58;;;;;;;15.98;22.39;98672.66;10322797;28;20038;-84
2022/03/12 15:52:57;;;;;;;5.15;1.80;;;;;;;15.99;22.07;98666.19;10315559;28;20046;-84
2022/03/12 15:58:02;;;;;;;4.05;1.90;;;;;;;15.52;21.08;98664.72;10308253;28;20039;-80
2022/03/12 16:03:07;;;;;;;1.55;1.42;;;;;;;15.29;20.93;98670.22;10303490;28;20218;-82
2022/03/12 16:08:11;;;;;;;3.92;1.60;;;;;;;15.04;21.74;98660.44;10316400;28;20078;-79
2022/03/12 16:13:15;;;;;;;5.45;1.83;;;;;;;14.79;21.91;98663.38;10333458;28;20050;-78
2022/03/12 16:18:18;;;;;;;6.18;1.77;;;;;;;14.73;21.99;98672.25;10314587;28;20097;-79
2022/03/12 16:23:24;;;;;;;2.92;1.80;;;;;;;14.55;22.16;98677.97;10326199;28;20078;-78
2022/03/12 16:28:29;;;;;;;2.45;1.67;;;;;;;14.35;22.79;98664.03;10322636;28;20507;-79
2022/03/12 16:33:33;;;;;;;2.03;1.60;;;;;;;14.11;23.49;98665.88;10305637;28;20050;-79
2022/03/12 16:38:36;;;;;;;2.85;1.80;;;;;;;13.76;23.11;98662.66;10320477;28;20061;-79
2022/03/12 16:43:43;;;;;;;5.18;1.98;;;;;;;13.60;24.08;98657.31;10316441;28;20069;-78
2022/03/12 16:48:49;;;;;;;2.58;1.73;;;;;;;13.31;23.78;98666.84;10302145;28;20118;-79
2022/03/12 16:53:52;;;;;;;3.20;1.50;;;;;;;13.09;24.51;98666.56;10307114;28;20407;-79
2022/03/12 16:58:57;;;;;;;1.88;1.60;;;;;;;12.79;24.68;98671.63;10313117;28;20046;-78
2022/03/12 17:04:00;;;;;;;3.92;1.60;;;;;;;12.41;24.55;98671.28;10309432;28;20125;-77
2022/03/12 17:09:03;;;;;;;3.95;1.70;;;;;;;12.08;24.44;98663.13;10316851;28;20050;-77
2022/03/12 17:14:11;;;;;;;2.20;1.80;;;;;;;11.69;24.67;98670.75;10310684;28;20056;-78
2022/03/12 17:19:15;;;;;;;2.97;1.80;;;;;;;11.33;25.29;98664.66;10309715;28;20093;-78
2022/03/12 17:24:21;;;;;;;4.10;2.10;;;;;;;10.65;26.05;98664.34;10315363;28;20057;-79
2022/03/12 17:29:26;;;;;;;5.00;1.95;;;;;;;10.16;26.02;98668.28;10319349;28;20053;-78
2022/03/12 17:34:29;;;;;;;3.70;2.45;;;;;;;9.79;26.29;98666.53;10313597;28;20050;-80
2022/03/12 17:39:33;;;;;;;3.38;2.53;;;;;;;9.53;27.19;98671.72;10306258;28;20514;-78
2022/03/12 17:44:37;;;;;;;3.03;2.33;;;;;;;9.27;26.95;98668.88;10302490;28;20046;-78
2022/03/12 17:49:42;;;;;;;4.10;3.50;;;;;;;8.72;28.04;98665.88;10306866;28;20397;-79
2022/03/12 17:54:45;;;;;;;4.05;2.85;;;;;;;8.29;29.06;98659.94;10320983;28;20053;-78
2022/03/12 17:59:50;;;;;;;2.72;2.08;;;;;;;8.10;28.87;98667.97;10315456;28;20134;-79
2022/03/12 18:04:53;;;;;;;2.65;2.20;;;;;;;7.81;28.91;98664.25;10318071;28;20066;-79
2022/03/12 18:09:56;;;;;;;3.67;2.33;;;;;;;7.64;28.96;98657.72;10302591;28;20046;-78
2022/03/12 18:15:26;;;;;;;3.92;2.40;;;;;;;7.45;28.86;98657.66;10318403;28;20054;-78
2022/03/12 18:20:29;;;;;;;2.97;2.40;;;;;;;7.27;30.11;98669.00;10318091;28;20046;-78
2022/03/12 18:25:33;;;;;;;3.10;2.30;;;;;;;6.96;30.15;98668.16;10317241;28;20058;-77
2022/03/12 18:30:39;;;;;;;5.03;2.65;;;;;;;6.89;30.01;98670.50;10319362;28;20093;-78
2022/03/12 18:35:42;;;;;;;3.38;2.45;;;;;;;6.65;30.40;98666.25;10311152;28;20057;-79
2022/03/12 18:40:48;;;;;;;2.67;2.47;;;;;;;6.42;30.72;98677.06;10295413;28;20089;-76
2022/03/12 18:45:54;;;;;;;2.97;2.25;;;;;;;6.10;31.50;98672.59;10306297;28;20082;-81
2022/03/12 18:50:58;;;;;;;2.90;2.10;;;;;;;5.96;31.44;98670.16;10319736;28;20039;-78
2022/03/12 18:56:04;;;;;;;3.00;2.25;;;;;;;5.80;31.56;98676.78;10322466;28;20082;-80
2022/03/12 19:01:24;;;;;;;3.92;2.80;;;;;;;5.59;32.17;98673.13;10342965;28;20053;-82
2022/03/12 19:06:39;;;;;;;4.43;3.03;;;;;;;5.42;32.66;98670.00;10339307;28;20050;-79
2022/03/12 19:11:43;;;;;;;3.88;2.70;;;;;;;5.15;33.09;98673.06;10325231;28;20575;-80
2022/03/12 19:16:49;;;;;;;2.97;2.67;;;;;;;5.06;33.02;98678.13;10311652;28;20062;-79
2022/03/12 19:21:52;;;;;;;5.72;2.90;;;;;;;4.90;33.48;98677.63;10314412;28;20470;-78
2022/03/12 19:26:56;;;;;;;5.55;3.08;;;;;;;4.80;33.29;98677.50;10306391;28;20046;-77
2022/03/12 19:32:01;;;;;;;5.00;3.00;;;;;;;4.74;32.89;98684.16;10309672;28;20504;-77
2022/03/12 19:37:04;;;;;;;3.92;2.78;;;;;;;4.70;34.03;98682.72;10318458;28;20062;-78
2022/03/12 19:42:09;;;;;;;4.10;2.92;;;;;;;4.73;32.93;98692.28;10304779;28;20069;-77
2022/03/12 19:47:14;;;;;;;4.60;2.72;;;;;;;4.71;32.69;98689.72;10300082;28;20035;-78
2022/03/12 19:52:17;;;;;;;3.75;2.80;;;;;;;4.70;33.17;98693.38;10319355;28;20105;-78
2022/03/12 19:57:20;;;;;;;4.50;2.80;;;;;;;4.70;32.64;98690.72;10314750;28;20121;-78
2022/03/12 20:02:24;;;;;;;4.32;3.03;;;;;;;4.67;32.81;98687.41;10317116;28;20487;-78
2022/03/12 20:07:27;;;;;;;3.50;2.90;;;;;;;4.62;32.85;98685.97;10319240;28;20043;-78
2022/03/12 20:12:32;;;;;;;3.58;2.80;;;;;;;4.55;32.76;98684.69;10350278;28;20107;-78
2022/03/12 20:17:37;;;;;;;5.03;2.72;;;;;;;4.40;32.53;98692.06;10350538;28;20058;-78
2022/03/12 20:22:41;;;;;;;5.22;2.90;;;;;;;4.28;32.69;98691.19;10326962;28;20125;-78
2022/03/12 20:27:44;;;;;;;3.53;2.60;;;;;;;4.24;32.78;98688.81;10316422;28;20043;-78
2022/03/12 20:32:48;;;;;;;3.28;2.65;;;;;;;4.16;32.91;98689.41;10311525;28;20055;-78
2022/03/12 20:37:52;;;;;;;4.28;2.63;;;;;;;4.08;33.01;98681.97;10313252;28;20046;-79
2022/03/12 20:42:55;;;;;;;3.67;2.70;;;;;;;4.03;32.57;98685.94;10311613;28;20759;-78
2022/03/12 20:48:00;;;;;;;3.80;2.55;;;;;;;3.92;32.96;98679.59;10310622;28;20042;-80
2022/03/12 20:53:03;;;;;;;3.75;2.75;;;;;;;3.83;32.95;98682.91;10310146;28;20134;-80
2022/03/12 20:58:06;;;;;;;4.32;2.80;;;;;;;3.76;32.89;98681.66;10314135;28;20063;-81
2022/03/12 21:03:11;;;;;;;3.10;2.53;;;;;;;3.66;33.55;98684.16;10307916;28;20051;-81
2022/03/12 21:08:17;;;;;;;3.17;2.30;;;;;;;3.60;33.63;98677.44;10317382;28;20054;-82
2022/03/12 21:13:20;;;;;;;5.15;2.60;;;;;;;3.57;33.31;98682.16;10327802;28;20046;-81
2022/03/12 21:18:25;;;;;;;4.82;2.50;;;;;;;3.52;33.31;98674.50;10323382;28;20062;-82
2022/03/12 21:23:36;;;;;;;3.03;2.50;;;;;;;3.48;34.21;98688.97;10349226;28;20049;-81
2022/03/12 21:28:46;;;;;;;4.63;2.60;;;;;;;3.44;33.28;98688.34;10322439;28;20160;-81
2022/03/12 21:33:50;;;;;;;4.90;2.47;;;;;;;3.42;34.04;98692.94;10325999;28;20046;-81
2022/03/12 21:38:53;;;;;;;3.88;2.60;;;;;;;3.33;34.56;98696.25;10334143;28;20042;-80
2022/03/12 21:43:58;;;;;;;3.55;2.22;;;;;;;3.29;34.18;98689.47;10333383;28;20675;-80
2022/03/12 21:49:02;;;;;;;3.80;2.40;;;;;;;3.26;34.14;98685.19;10328578;28;20074;-80
2022/03/12 21:54:05;;;;;;;3.40;2.55;;;;;;;3.17;33.73;98685.84;10335953;28;20069;-78
2022/03/12 21:59:09;;;;;;;5.63;2.47;;;;;;;3.12;34.02;98682.66;10349557;28;20062;-79
2022/03/12 22:04:17;;;;;;;4.47;2.30;;;;;;;3.07;34.05;98688.28;10326132;28;20038;-80
2022/03/12 22:09:23;;;;;;;2.83;2.53;;;;;;;3.10;33.89;98684.56;10326824;28;20169;-80
2022/03/12 22:14:29;;;;;;;3.25;2.40;;;;;;;3.05;33.78;98685.75;10328016;28;20138;-80
2022/03/12 22:19:38;;;;;;;2.83;2.30;;;;;;;3.04;33.64;98680.53;10332627;28;20035;-81
2022/03/12 22:24:43;;;;;;;3.75;2.20;;;;;;;2.99;33.78;98678.19;10325712;28;20085;-80
2022/03/12 22:29:46;;;;;;;5.30;2.30;;;;;;;2.96;33.97;98675.75;10320253;28;20056;-79
2022/03/12 22:34:50;;;;;;;3.80;2.30;;;;;;;2.93;33.83;98673.28;10328633;28;20526;-80
2022/03/12 22:39:54;;;;;;;6.28;2.20;;;;;;;2.95;33.50;98668.72;10331124;28;20097;-80
2022/03/12 22:44:59;;;;;;;4.68;2.30;;;;;;;2.96;33.75;98664.22;10322748;28;20061;-81
2022/03/12 22:50:06;;;;;;;3.58;2.30;;;;;;;2.92;34.17;98660.94;10329526;28;20046;-81
2022/03/12 22:55:15;;;;;;;3.10;2.28;;;;;;;2.89;33.52;98651.38;10337540;28;20058;-82
2022/03/12 23:00:58;;;;;;;5.72;2.08;;;;;;;2.91;34.01;98643.25;10322971;28;20054;-81
2022/03/12 23:11:25;;;;;;;2.95;2.10;;;;;;;2.79;33.95;98639.66;10325820;28;20053;-81
2022/03/12 23:16:30;;;;;;;4.10;1.98;;;;;;;2.72;33.91;98633.03;10332979;28;20046;-81
2022/03/12 23:21:36;;;;;;;2.20;2.00;;;;;;;2.66;35.04;98628.16;10324350;28;20054;-81
2022/03/12 23:26:41;;;;;;;3.00;2.20;;;;;;;2.57;34.88;98624.31;10329635;28;20079;-81
2022/03/12 23:31:51;;;;;;;2.72;1.92;;;;;;;2.48;34.68;98628.47;10324679;28;20451;-80
2022/03/12 23:36:57;;;;;;;2.38;2.10;;;;;;;2.36;35.13;98622.19;10331543;28;20051;-82
2022/03/12 23:42:01;;;;;;;3.88;2.10;;;;;;;2.29;35.21;98634.19;10316644;28;20463;-81
2022/03/12 23:47:04;;;;;;;3.33;2.30;;;;;;;2.20;34.92;98629.47;10319177;28;20479;-82
2022/03/12 23:52:33;;;;;;;3.38;2.00;;;;;;;2.09;35.58;98633.72;10328417;28;20042;-81
2022/03/12 23:57:37;;;;;;;2.92;2.10;;;;;;;2.00;35.62;98626.34;10329835;28;20070;-81
